createdAt,value
2023-03-24T00:01:19.383Z,13.00
2023-03-24T00:03:49.306Z,13.00
2023-03-24T00:06:18.991Z,13.00
2023-03-24T00:08:48.527Z,13.00
2023-03-24T00:11:18.850Z,13.00
2023-03-24T00:13:50.546Z,13.00
2023-03-24T00:16:19.945Z,12.90
2023-03-24T00:18:54.278Z,12.90
2023-03-24T00:21:24.975Z,12.80
2023-03-24T00:23:55.786Z,12.70
2023-03-24T00:26:25.700Z,12.80
2023-03-24T00:28:54.331Z,12.80
2023-03-24T00:31:22.436Z,12.80
2023-03-24T00:33:54.119Z,12.80
2023-03-24T00:36:24.801Z,12.70
2023-03-24T00:38:54.529Z,12.60
2023-03-24T00:41:25.066Z,12.60
2023-03-24T00:43:56.088Z,12.60
2023-03-24T00:46:27.906Z,12.60
2023-03-24T00:49:02.870Z,12.60
2023-03-24T00:51:33.558Z,12.60
2023-03-24T00:54:03.504Z,12.60
2023-03-24T00:56:33.786Z,12.50
2023-03-24T00:59:02.684Z,12.50
2023-03-24T01:01:36.805Z,12.50
2023-03-24T01:04:06.411Z,12.50
2023-03-24T01:06:36.784Z,12.40
2023-03-24T01:09:07.556Z,12.40
2023-03-24T01:11:38.833Z,12.40
2023-03-24T01:14:07.090Z,12.40
2023-03-24T01:16:34.907Z,12.40
2023-03-24T01:19:02.886Z,12.30
2023-03-24T01:21:32.084Z,12.30
2023-03-24T01:23:59.905Z,12.20
2023-03-24T01:26:29.175Z,12.30
2023-03-24T01:28:57.033Z,12.20
2023-03-24T01:31:24.798Z,12.20
2023-03-24T01:33:52.630Z,12.20
2023-03-24T01:36:20.761Z,12.20
2023-03-24T01:38:48.534Z,12.30
2023-03-24T01:41:16.367Z,12.20
2023-03-24T01:43:45.808Z,12.30
2023-03-24T01:46:19.258Z,12.20
2023-03-24T01:48:52.474Z,12.10
2023-03-24T01:51:25.245Z,12.10
2023-03-24T01:53:56.460Z,12.10
2023-03-24T01:56:25.900Z,12.00
2023-03-24T01:58:58.782Z,12.00
2023-03-24T02:01:35.892Z,12.00
2023-03-24T02:04:19.614Z,12.00
2023-03-24T02:06:49.301Z,12.00
2023-03-24T02:09:17.710Z,12.00
2023-03-24T02:11:46.569Z,12.00
2023-03-24T02:14:17.392Z,12.00
2023-03-24T02:17:23.593Z,12.00
2023-03-24T02:20:23.936Z,11.90
2023-03-24T02:23:19.468Z,11.90
2023-03-24T02:26:18.940Z,12.00
2023-03-24T02:28:55.802Z,12.00
2023-03-24T02:31:46.118Z,12.10
2023-03-24T02:34:41.633Z,12.10
2023-03-24T02:37:43.448Z,11.90
2023-03-24T02:40:27.191Z,11.80
2023-03-24T02:43:05.161Z,11.90
2023-03-24T02:45:38.975Z,12.00
2023-03-24T02:48:21.414Z,11.90
2023-03-24T02:50:54.969Z,12.00
2023-03-24T02:53:32.494Z,11.90
2023-03-24T02:56:30.347Z,11.90
2023-03-24T02:59:12.149Z,11.90
2023-03-24T03:01:46.084Z,11.90
2023-03-24T03:04:46.532Z,11.90
2023-03-24T03:07:17.151Z,11.80
2023-03-24T03:09:51.396Z,11.90
2023-03-24T03:12:25.784Z,11.80
2023-03-24T03:14:58.382Z,11.80
2023-03-24T03:17:31.076Z,11.80
2023-03-24T03:20:06.892Z,11.90
2023-03-24T03:22:43.430Z,11.90
2023-03-24T03:25:13.767Z,11.90
2023-03-24T03:27:47.219Z,11.90
2023-03-24T03:30:21.372Z,11.80
2023-03-24T03:32:54.723Z,11.70
2023-03-24T03:35:28.501Z,11.70
2023-03-24T03:38:06.530Z,11.70
2023-03-24T03:40:39.180Z,11.60
2023-03-24T03:43:17.070Z,11.70
2023-03-24T03:45:45.793Z,11.60
2023-03-24T03:48:17.568Z,11.60
2023-03-24T03:50:46.726Z,11.70
2023-03-24T03:53:17.787Z,11.70
2023-03-24T03:55:47.575Z,11.70
2023-03-24T03:58:17.595Z,11.70
2023-03-24T04:00:56.130Z,11.70
2023-03-24T04:03:50.285Z,11.70
2023-03-24T04:06:33.394Z,11.60
2023-03-24T04:09:13.295Z,11.70
2023-03-24T04:11:57.485Z,11.70
2023-03-24T04:14:52.340Z,11.60
2023-03-24T04:17:59.080Z,11.60
2023-03-24T04:20:50.202Z,11.60
2023-03-24T04:23:28.324Z,11.70
2023-03-24T04:26:10.696Z,11.80
2023-03-24T04:28:48.190Z,11.80
2023-03-24T04:31:26.676Z,11.80
2023-03-24T04:34:03.858Z,11.80
2023-03-24T04:36:42.829Z,11.70
2023-03-24T04:39:39.320Z,11.70
2023-03-24T04:42:18.008Z,11.70
2023-03-24T04:44:51.814Z,11.70
2023-03-24T04:47:26.118Z,11.70
2023-03-24T04:50:11.710Z,11.70
2023-03-24T04:52:41.145Z,11.70
2023-03-24T04:55:32.596Z,11.70
2023-03-24T04:58:01.114Z,11.70
2023-03-24T05:00:29.308Z,11.60
2023-03-24T05:02:59.041Z,11.60
2023-03-24T05:05:28.862Z,11.50
2023-03-24T05:08:00.480Z,11.50
2023-03-24T05:10:29.600Z,11.40
2023-03-24T05:12:58.765Z,11.40
2023-03-24T05:15:27.006Z,11.40
2023-03-24T05:18:12.792Z,11.40
2023-03-24T05:20:40.783Z,11.40
2023-03-24T05:23:18.260Z,11.50
2023-03-24T05:25:48.015Z,11.50
2023-03-24T05:28:17.390Z,11.50
2023-03-24T05:30:45.899Z,11.50
2023-03-24T05:33:41.610Z,11.50
2023-03-24T05:36:13.577Z,11.60
2023-03-24T05:38:42.761Z,11.60
2023-03-24T05:41:11.721Z,11.70
2023-03-24T05:43:43.202Z,11.70
2023-03-24T05:46:14.273Z,11.70
2023-03-24T05:48:44.206Z,11.70
2023-03-24T05:51:15.241Z,11.80
2023-03-24T05:53:43.580Z,11.80
2023-03-24T05:56:14.216Z,11.80
2023-03-24T05:59:01.027Z,11.70
2023-03-24T06:01:49.288Z,11.80
2023-03-24T06:04:30.716Z,11.80
2023-03-24T06:07:05.586Z,11.70
2023-03-24T06:09:40.407Z,11.60
2023-03-24T06:12:10.597Z,11.50
2023-03-24T06:14:45.684Z,11.50
2023-03-24T06:17:15.167Z,11.60
2023-03-24T06:19:50.659Z,11.60
2023-03-24T06:22:38.885Z,11.60
2023-03-24T06:25:12.538Z,11.60
2023-03-24T06:27:46.383Z,11.70
2023-03-24T06:30:20.164Z,11.70
2023-03-24T06:32:48.230Z,11.70
2023-03-24T06:35:20.028Z,11.70
2023-03-24T06:37:53.591Z,11.80
2023-03-24T06:40:22.594Z,11.90
2023-03-24T06:42:55.777Z,12.00
2023-03-24T06:45:24.165Z,11.90
2023-03-24T06:47:56.075Z,12.00
2023-03-24T06:50:33.452Z,12.00
2023-03-24T06:53:06.117Z,12.10
2023-03-24T06:55:37.120Z,12.20
2023-03-24T06:58:06.353Z,12.10
2023-03-24T07:00:42.973Z,12.20
2023-03-24T07:03:31.119Z,12.40
2023-03-24T07:06:27.057Z,12.40
2023-03-24T07:08:57.972Z,12.60
2023-03-24T07:11:28.754Z,12.70
2023-03-24T07:14:00.203Z,12.80
2023-03-24T07:16:30.191Z,12.90
2023-03-24T07:19:22.786Z,13.00
2023-03-24T07:22:01.283Z,13.10
2023-03-24T07:24:46.383Z,13.20
2023-03-24T07:27:39.514Z,13.20
2023-03-24T07:30:09.964Z,13.30
2023-03-24T07:32:44.065Z,13.40
2023-03-24T07:35:13.538Z,13.50
2023-03-24T07:37:43.139Z,13.60
2023-03-24T07:40:13.460Z,13.60
2023-03-24T07:42:42.385Z,13.70
2023-03-24T07:45:26.458Z,13.60
2023-03-24T07:47:54.620Z,13.60
2023-03-24T07:50:22.529Z,13.70
2023-03-24T07:52:51.973Z,13.80
2023-03-24T07:55:21.656Z,14.00
2023-03-24T07:57:57.340Z,14.10
2023-03-24T08:00:29.675Z,14.20
2023-03-24T08:03:14.649Z,14.40
2023-03-24T08:06:20.884Z,14.40
2023-03-24T08:08:54.339Z,14.50
2023-03-24T08:11:22.443Z,14.60
2023-03-24T08:13:50.294Z,14.70
2023-03-24T08:16:18.297Z,14.80
2023-03-24T08:18:46.576Z,14.80
2023-03-24T08:21:14.788Z,15.00
2023-03-24T08:23:43.012Z,15.00
2023-03-24T08:26:13.138Z,15.20
2023-03-24T08:28:41.996Z,15.30
2023-03-24T08:31:10.192Z,15.40
2023-03-24T08:33:38.292Z,15.50
2023-03-24T08:36:08.527Z,15.70
2023-03-24T08:38:39.161Z,15.70
2023-03-24T08:41:08.881Z,15.80
2023-03-24T08:43:38.463Z,16.00
2023-03-24T08:46:20.174Z,16.10
2023-03-24T08:48:49.281Z,16.10
2023-03-24T08:51:18.411Z,16.10
2023-03-24T08:53:46.501Z,16.10
2023-03-24T08:56:14.376Z,16.10
2023-03-24T08:58:43.867Z,16.20
2023-03-24T09:01:12.734Z,16.20
2023-03-24T09:03:41.715Z,16.30
2023-03-24T09:06:10.109Z,16.30
2023-03-24T09:08:38.419Z,16.40
2023-03-24T09:11:07.314Z,16.50
2023-03-24T09:13:35.833Z,16.50
2023-03-24T09:16:06.277Z,16.50
2023-03-24T09:18:34.571Z,16.50
2023-03-24T09:21:03.175Z,16.60
2023-03-24T09:23:31.894Z,16.60
2023-03-24T09:26:00.380Z,16.70
2023-03-24T09:28:28.811Z,16.70
2023-03-24T09:31:01.208Z,16.80
2023-03-24T09:33:31.114Z,16.80
2023-03-24T09:36:01.005Z,16.80
2023-03-24T09:38:30.083Z,16.80
2023-03-24T09:41:03.070Z,16.70
2023-03-24T09:43:40.131Z,16.70
2023-03-24T09:46:14.529Z,16.60
2023-03-24T09:48:49.935Z,16.50
2023-03-24T09:51:22.715Z,16.50
2023-03-24T09:53:54.994Z,16.40
2023-03-24T09:56:23.788Z,16.40
2023-03-24T09:59:01.231Z,16.50
2023-03-24T10:01:29.305Z,16.50
2023-03-24T10:04:01.085Z,16.50
2023-03-24T10:06:36.253Z,16.60
2023-03-24T10:09:31.332Z,16.80
2023-03-24T10:12:15.148Z,16.80
2023-03-24T10:14:56.497Z,17.00
2023-03-24T10:17:33.755Z,17.30
2023-03-24T10:20:13.325Z,17.40
2023-03-24T10:22:50.880Z,17.60
2023-03-24T10:25:23.398Z,17.80
2023-03-24T10:27:56.820Z,17.80
2023-03-24T10:30:28.520Z,17.80
2023-03-24T10:32:57.141Z,17.90
2023-03-24T10:35:30.276Z,18.20
2023-03-24T10:38:01.164Z,18.40
2023-03-24T10:40:33.467Z,18.50
2023-03-24T10:43:06.742Z,18.50
2023-03-24T10:45:40.950Z,18.30
2023-03-24T10:48:09.946Z,18.40
2023-03-24T10:50:44.036Z,18.40
2023-03-24T10:53:18.975Z,18.10
2023-03-24T10:55:48.176Z,18.20
2023-03-24T10:58:21.293Z,18.30
2023-03-24T11:00:50.302Z,18.30
2023-03-24T11:03:24.594Z,18.50
2023-03-24T11:06:00.329Z,18.50
2023-03-24T11:08:32.966Z,18.70
2023-03-24T11:11:00.907Z,18.90
2023-03-24T11:13:30.909Z,19.00
2023-03-24T11:16:09.499Z,19.20
2023-03-24T11:18:37.909Z,19.30
2023-03-24T11:21:08.413Z,19.30
2023-03-24T11:23:43.035Z,19.40
2023-03-24T11:26:15.846Z,19.50
2023-03-24T11:28:47.038Z,19.30
2023-03-24T11:31:24.674Z,19.30
2023-03-24T11:33:58.381Z,19.40
2023-03-24T11:36:46.318Z,19.40
2023-03-24T11:39:19.245Z,19.50
2023-03-24T11:41:58.910Z,19.60
2023-03-24T11:44:26.985Z,19.60
2023-03-24T11:46:58.731Z,19.80
2023-03-24T11:49:30.686Z,19.80
2023-03-24T11:52:00.875Z,19.80
2023-03-24T11:54:34.130Z,19.90
2023-03-24T11:57:05.844Z,20.00
2023-03-24T11:59:37.797Z,20.00
2023-03-24T12:02:19.949Z,20.20
2023-03-24T12:05:09.662Z,20.20
2023-03-24T12:08:04.767Z,20.20
2023-03-24T12:10:48.619Z,20.30
2023-03-24T12:13:32.460Z,20.50
2023-03-24T12:16:15.733Z,20.80
2023-03-24T12:19:05.975Z,20.70
2023-03-24T12:21:49.194Z,20.70
2023-03-24T12:24:28.600Z,20.60
2023-03-24T12:26:59.720Z,20.80
2023-03-24T12:29:59.630Z,21.00
2023-03-24T12:32:55.558Z,20.90
2023-03-24T12:35:52.440Z,20.80
2023-03-24T12:38:40.446Z,21.00
2023-03-24T12:41:32.848Z,21.10
2023-03-24T12:44:27.605Z,20.90
2023-03-24T12:47:04.160Z,21.20
2023-03-24T12:49:50.189Z,21.30
2023-03-24T12:52:33.854Z,21.00
2023-03-24T12:55:05.104Z,20.70
2023-03-24T12:57:39.819Z,20.60
2023-03-24T13:00:14.164Z,20.50
2023-03-24T13:02:48.887Z,20.70
2023-03-24T13:05:21.414Z,21.00
2023-03-24T13:07:54.386Z,21.10
2023-03-24T13:10:25.829Z,21.00
2023-03-24T13:12:58.446Z,21.00
2023-03-24T13:15:31.439Z,21.00
2023-03-24T13:18:15.279Z,21.10
2023-03-24T13:20:45.996Z,20.60
2023-03-24T13:23:40.517Z,20.70
2023-03-24T13:26:17.899Z,20.80
2023-03-24T13:28:57.868Z,20.90
2023-03-24T13:31:27.116Z,21.00
2023-03-24T13:33:56.353Z,21.20
2023-03-24T13:36:39.368Z,21.10
2023-03-24T13:39:12.283Z,21.10
2023-03-24T13:41:42.262Z,20.70
2023-03-24T13:44:22.389Z,20.70
2023-03-24T13:47:13.626Z,20.40
2023-03-24T13:49:43.266Z,20.10
2023-03-24T13:52:26.720Z,19.90
2023-03-24T13:54:58.486Z,19.80
2023-03-24T13:57:41.562Z,19.70
2023-03-24T14:00:22.316Z,19.60
2023-03-24T14:02:51.396Z,19.50
2023-03-24T14:05:34.344Z,19.40
2023-03-24T14:08:17.359Z,19.30
2023-03-24T14:10:49.941Z,19.20
2023-03-24T14:13:34.670Z,19.10
2023-03-24T14:16:47.623Z,19.10
2023-03-24T14:19:24.298Z,19.10
2023-03-24T14:21:53.514Z,19.20
2023-03-24T14:24:40.482Z,19.20
2023-03-24T14:27:35.255Z,19.10
2023-03-24T14:30:13.709Z,19.10
2023-03-24T14:32:46.236Z,19.50
2023-03-24T14:35:25.445Z,20.20
2023-03-24T14:37:56.140Z,20.50
2023-03-24T14:40:30.072Z,20.50
2023-03-24T14:43:04.896Z,19.80
2023-03-24T14:45:54.366Z,20.10
2023-03-24T14:48:39.233Z,20.90
2023-03-24T14:51:44.521Z,21.30
2023-03-24T14:54:18.913Z,20.80
2023-03-24T14:56:52.761Z,21.20
2023-03-24T14:59:36.036Z,22.00
2023-03-24T15:02:14.210Z,22.40
2023-03-24T15:05:00.681Z,22.50
2023-03-24T15:07:28.499Z,21.80
2023-03-24T15:09:56.075Z,21.70
2023-03-24T15:12:24.573Z,22.20
2023-03-24T15:14:53.947Z,22.50
2023-03-24T15:17:23.721Z,22.80
2023-03-24T15:19:55.194Z,23.20
2023-03-24T15:22:23.136Z,23.30
2023-03-24T15:24:52.762Z,22.80
2023-03-24T15:27:25.191Z,22.90
2023-03-24T15:29:59.412Z,23.20
2023-03-24T15:32:32.284Z,23.20
2023-03-24T15:35:06.241Z,23.30
2023-03-24T15:37:40.108Z,23.30
2023-03-24T15:40:36.210Z,22.80
2023-03-24T15:43:06.962Z,21.50
2023-03-24T15:45:36.672Z,20.80
2023-03-24T15:48:08.073Z,20.40
2023-03-24T15:50:38.625Z,19.80
2023-03-24T15:53:21.753Z,19.60
2023-03-24T15:56:04.251Z,19.50
2023-03-24T15:58:47.729Z,19.50
2023-03-24T16:01:19.163Z,19.30
2023-03-24T16:03:48.742Z,19.00
2023-03-24T16:06:27.200Z,18.80
2023-03-24T16:08:58.208Z,18.60
2023-03-24T16:11:26.377Z,18.50
2023-03-24T16:13:54.159Z,18.40
2023-03-24T16:16:26.067Z,18.40
2023-03-24T16:18:56.532Z,18.30
2023-03-24T16:21:28.107Z,18.20
2023-03-24T16:23:57.359Z,18.40
2023-03-24T16:26:26.449Z,18.50
2023-03-24T16:28:57.221Z,18.40
2023-03-24T16:31:27.356Z,18.40
2023-03-24T16:33:57.851Z,18.40
2023-03-24T16:36:28.007Z,18.50
2023-03-24T16:38:57.392Z,18.70
2023-03-24T16:41:25.852Z,18.70
2023-03-24T16:43:54.298Z,18.60
2023-03-24T16:46:31.549Z,18.60
2023-03-24T16:48:59.712Z,18.50
2023-03-24T16:51:29.978Z,18.50
2023-03-24T16:53:58.141Z,18.50
2023-03-24T16:56:26.803Z,18.40
2023-03-24T16:58:56.513Z,18.10
2023-03-24T17:01:33.479Z,17.80
2023-03-24T17:04:03.120Z,17.80
2023-03-24T17:06:33.466Z,17.80
2023-03-24T17:09:01.543Z,17.60
2023-03-24T17:11:31.966Z,17.50
2023-03-24T17:14:05.045Z,17.40
2023-03-24T17:16:36.738Z,17.30
2023-03-24T17:19:05.625Z,17.10
2023-03-24T17:21:49.382Z,17.00
2023-03-24T17:24:17.816Z,16.90
2023-03-24T17:26:45.769Z,16.70
2023-03-24T17:29:13.995Z,16.70
2023-03-24T17:31:43.529Z,16.60
2023-03-24T17:34:21.646Z,16.60
2023-03-24T17:36:52.152Z,16.50
2023-03-24T17:39:21.527Z,16.50
2023-03-24T17:41:49.564Z,16.50
2023-03-24T17:44:17.679Z,16.50
2023-03-24T17:46:46.183Z,16.50
2023-03-24T17:49:14.269Z,16.40
2023-03-24T17:51:41.999Z,16.40
2023-03-24T17:54:11.918Z,16.40
2023-03-24T17:56:40.006Z,16.30
2023-03-24T17:59:07.742Z,16.30
2023-03-24T18:01:39.667Z,16.30
2023-03-24T18:04:07.643Z,16.30
2023-03-24T18:06:35.678Z,16.20
2023-03-24T18:09:03.548Z,16.20
2023-03-24T18:11:32.939Z,16.20
2023-03-24T18:14:00.770Z,16.30
2023-03-24T18:16:31.586Z,16.30
2023-03-24T18:19:00.742Z,16.20
2023-03-24T18:21:28.795Z,16.10
2023-03-24T18:23:56.759Z,16.20
2023-03-24T18:26:24.917Z,16.20
2023-03-24T18:28:54.350Z,16.10
2023-03-24T18:31:26.142Z,16.10
2023-03-24T18:33:55.154Z,16.10
2023-03-24T18:36:26.782Z,16.00
2023-03-24T18:38:59.221Z,16.00
2023-03-24T18:41:28.647Z,15.90
2023-03-24T18:43:59.212Z,15.90
2023-03-24T18:46:27.979Z,15.90
2023-03-24T18:48:56.563Z,15.80
2023-03-24T18:51:25.777Z,15.80
2023-03-24T18:53:54.004Z,15.80
2023-03-24T18:56:22.886Z,15.80
2023-03-24T18:58:52.996Z,15.80
2023-03-24T19:01:25.327Z,15.70
2023-03-24T19:03:53.889Z,15.70
2023-03-24T19:06:22.115Z,15.70
2023-03-24T19:08:52.145Z,15.80
2023-03-24T19:11:20.640Z,15.70
2023-03-24T19:13:50.865Z,15.80
2023-03-24T19:16:19.911Z,15.80
2023-03-24T19:18:50.826Z,15.70
2023-03-24T19:21:19.397Z,15.80
2023-03-24T19:23:48.559Z,15.80
2023-03-24T19:26:18.276Z,15.80
2023-03-24T19:28:47.565Z,15.80
2023-03-24T19:31:21.817Z,15.70
2023-03-24T19:33:54.010Z,15.70
2023-03-24T19:36:22.724Z,15.70
2023-03-24T19:38:51.135Z,15.70
2023-03-24T19:41:19.045Z,15.70
2023-03-24T19:43:46.854Z,15.70
2023-03-24T19:46:16.665Z,15.60
2023-03-24T19:48:44.599Z,15.60
2023-03-24T19:51:13.981Z,15.50
2023-03-24T19:53:41.756Z,15.50
2023-03-24T19:56:09.508Z,15.40
2023-03-24T19:58:37.260Z,15.40
2023-03-24T20:01:05.246Z,15.30
2023-03-24T20:03:33.234Z,15.20
2023-03-24T20:06:05.172Z,15.30
2023-03-24T20:08:34.456Z,15.30
2023-03-24T20:11:03.726Z,15.20
2023-03-24T20:13:31.632Z,15.20
2023-03-24T20:15:59.345Z,15.20
2023-03-24T20:18:27.545Z,15.20
2023-03-24T20:20:55.666Z,15.30
2023-03-24T20:23:23.410Z,15.40
2023-03-24T20:25:52.912Z,15.40
2023-03-24T20:28:21.601Z,15.30
2023-03-24T20:30:49.384Z,15.20
2023-03-24T20:33:17.229Z,15.20
2023-03-24T20:35:45.080Z,15.20
2023-03-24T20:38:12.901Z,15.20
2023-03-24T20:40:40.517Z,15.20
2023-03-24T20:43:09.903Z,15.20
2023-03-24T20:45:37.577Z,15.20
2023-03-24T20:48:05.561Z,15.30
2023-03-24T20:50:33.467Z,15.20
2023-03-24T20:53:01.308Z,15.20
2023-03-24T20:55:29.126Z,15.30
2023-03-24T20:57:56.932Z,15.30
2023-03-24T21:00:26.171Z,15.40
2023-03-24T21:02:54.403Z,15.50
2023-03-24T21:05:22.452Z,15.50
2023-03-24T21:07:50.414Z,15.40
2023-03-24T21:10:18.556Z,15.40
2023-03-24T21:12:52.599Z,15.30
2023-03-24T21:15:23.211Z,15.30
2023-03-24T21:17:58.943Z,15.30
2023-03-24T21:20:28.734Z,15.30
2023-03-24T21:22:56.992Z,15.40
2023-03-24T21:25:27.224Z,15.40
2023-03-24T21:27:56.330Z,15.40
2023-03-24T21:30:25.572Z,15.40
2023-03-24T21:32:55.849Z,15.40
2023-03-24T21:35:25.730Z,15.40
2023-03-24T21:37:54.109Z,15.40
2023-03-24T21:40:24.753Z,15.40
2023-03-24T21:42:56.054Z,15.40
2023-03-24T21:45:24.688Z,15.40
2023-03-24T21:47:57.974Z,15.40
2023-03-24T21:50:30.179Z,15.40
2023-03-24T21:52:58.111Z,15.30
2023-03-24T21:55:27.320Z,15.30
2023-03-24T21:57:55.689Z,15.30
2023-03-24T22:00:25.229Z,15.30
2023-03-24T22:03:01.782Z,15.20
2023-03-24T22:05:32.981Z,15.20
2023-03-24T22:08:02.728Z,15.20
2023-03-24T22:10:34.982Z,15.20
2023-03-24T22:13:04.124Z,15.20
2023-03-24T22:15:33.774Z,15.20
2023-03-24T22:18:02.858Z,15.20
2023-03-24T22:20:33.105Z,15.10
2023-03-24T22:23:03.589Z,15.10
2023-03-24T22:25:32.337Z,15.10
2023-03-24T22:28:00.029Z,15.20
2023-03-24T22:30:28.039Z,15.20
2023-03-24T22:32:55.676Z,15.20
2023-03-24T22:35:23.508Z,15.20
2023-03-24T22:37:52.781Z,15.20
2023-03-24T22:40:20.588Z,15.20
2023-03-24T22:42:48.300Z,15.20
2023-03-24T22:45:16.306Z,15.10
2023-03-24T22:47:44.072Z,15.10
2023-03-24T22:50:12.334Z,15.20
2023-03-24T22:52:40.269Z,15.10
2023-03-24T22:55:10.744Z,15.10
2023-03-24T22:57:38.820Z,15.00
2023-03-24T23:00:08.436Z,15.00
2023-03-24T23:02:36.235Z,15.00
2023-03-24T23:05:04.073Z,14.90
2023-03-24T23:07:33.125Z,14.80
2023-03-24T23:10:00.806Z,14.80
2023-03-24T23:12:30.987Z,14.70
2023-03-24T23:14:58.724Z,14.60
2023-03-24T23:17:26.911Z,14.50
2023-03-24T23:19:54.894Z,14.60
2023-03-24T23:22:23.723Z,14.60
2023-03-24T23:25:00.744Z,14.60
2023-03-24T23:27:36.244Z,14.60
2023-03-24T23:30:06.102Z,14.60
2023-03-24T23:32:34.356Z,14.60
2023-03-24T23:35:03.079Z,14.60
2023-03-24T23:37:32.276Z,14.60
2023-03-24T23:40:08.418Z,14.60
2023-03-24T23:42:38.085Z,14.60
2023-03-24T23:45:07.159Z,14.60
2023-03-24T23:47:36.771Z,14.60
2023-03-24T23:50:08.333Z,14.50
2023-03-24T23:52:36.249Z,14.50
2023-03-24T23:55:04.861Z,14.40
2023-03-24T23:57:33.329Z,14.40
